Terminal Aerodrome Forecast
Issued by NWS

Home | Current Version | Previous Version | Text Only | Print | Product List | Glossary On
Versions: 1 2 3 4 5 6 7 8 9 10 11 12 13 14 15 16 17 18 19 20 21 22 23 24 25 26 27 28 29 30 31 32 33 34 35 36 37 38 39 40 41
000
FTUS41 KRNK 231728
TAFBCB
TAF
KBCB 231728Z 2318/2418 09003KT P6SM FEW035 BKN200
     FM240900 07005KT P6SM SCT100 BKN160
      TEMPO 2410/2412 4SM BR
     FM241600 08008KT P6SM BKN120=

USA.gov is the U.S. government's official web portal to all federal, state and local government web resources and services.